Colby, WI

6:20 AM CDT on July 14, 2014 (GMT -0500)
Taylor County (KMDZ) Elev 1470 ft | 45.10 °N, 90.30 °W | Change Station

Current weather conditions updated 5 minutes ago

Overcast
Overcast
54 °F
Feels Like 54 °F
N
0
Wind Variable Wind from North

Today is forecast to be Much Cooler than yesterday. Showers and thunderstorms.

Today
High -- | Low -- °F
--% Chance of Precip.
Yesterday
High -- | Low -- °F
Precip. -- in
5:28 AM 8:45 PM
Waning Gibbous, 94% visible
Pressure 29.85 in
Visibility 10.0 miles
Clouds Overcast 8500 ft
Dew Point 52 °F
Humidity 94%
Rainfall 0.00 in
Snow Depth Not available.
UV 0 out of 12
Pollen 3.80 out of 12
Air Quality Not available.
Flu Activity Sporadic
METAR KMDZ 141115Z AUTO 00000KT 10SM OVC085 12/11 A2985 RMK AO2 T01200110

More Conditions Fewer Conditions

Pressure 29.85 in
Visibility 10.0 miles
Clouds Overcast 8500 ft
Dew Point 52 °F
Humidity 94%
Rainfall 0.00 in
Snow Depth Not available.
UV 0 out of 12
Pollen 3.80 out of 12
Air Quality Not available.
Flu Activity Sporadic
METAR KMDZ 141115Z AUTO 00000KT 10SM OVC085 12/11 A2985 RMK AO2 T01200110

More Conditions Fewer Conditions

10-Day Weather Forecast

Almanac

Astronomy

Jul. 14, 2014 Rise Set
Actual Time 5:28 AM CDT 8:45 PM CDT
Civil Twilight 4:52 AM CDT 9:21 PM CDT
Nautical Twilight 4:05 AM CDT 10:07 PM CDT
Astronomical Twilight 3:07 AM CDT 11:05 PM CDT
Moon 10:04 PM CDT 8:20 AM CDT
Length of Visible Light 16h 28m
Length of Day
15h 17m
Tomorrow will be 1m 37s shorter.
Waning Gibbous, 94% of the Moon is Illuminated
Today
Waning Gibbous
Jul 18
Last Quarter
Jul 26
New
Aug 3
First Quarter
Aug 10
Full

Today's Extremes

State Highs State Lows

Community

WunderPhotos

Upload Photos

1,733,611 photos uploaded!

Nearby

Snow Depth

Station Depth Elevation
No new snow has been reported.

Earthquake Activity

City Distance Mag. Time & Date
No recent earthquake activity has been reported nearby.
Minimum magnitude displayed is 2.5.

Coastal Water Temperatures

Place Temperature
No Stations Reporting

Nearby Weather Stations

Station Location Temp. Dew Point Humidity Wind Precip. Elev Updated Type
Rib Falls Repair, Athens, WI 54.4 °F 52 °F 93% NW  at  0.0 mph 0.00 in / hr 1348 ft 6:19 AM CDT Normal
RAWS DIAMOND LAKE WI, Lublin, WI 52 °F 51 °F 97% NNW  at  2 mph 0.00 in / hr 1316 ft 5:14 AM CDT MADIS

Show More Stations Show Fewer Stations